createdAt,value
2022-11-30T00:02:30.175Z,81.27
2022-11-30T00:05:31.862Z,89.13
2022-11-30T00:08:33.566Z,92.67
2022-11-30T00:11:35.196Z,89.60
2022-11-30T00:14:36.900Z,85.60
2022-11-30T00:17:38.433Z,93.10
2022-11-30T00:20:40.039Z,91.47
2022-11-30T00:23:42.510Z,95.70
2022-11-30T00:26:44.189Z,94.00
2022-11-30T00:29:45.894Z,88.93
2022-11-30T00:32:47.543Z,93.33
2022-11-30T00:35:59.110Z,96.00
2022-11-30T00:39:00.743Z,95.00
2022-11-30T00:42:02.273Z,93.13
2022-11-30T00:45:04.039Z,99.47
2022-11-30T00:48:05.741Z,99.60
2022-11-30T00:51:08.539Z,106.17
2022-11-30T00:54:10.104Z,106.30
2022-11-30T00:57:11.767Z,114.50
2022-11-30T01:00:13.582Z,100.53
2022-11-30T01:03:15.158Z,103.10
2022-11-30T01:06:16.735Z,101.97
2022-11-30T01:09:18.260Z,121.57
2022-11-30T01:12:19.801Z,96.53
2022-11-30T01:15:21.441Z,93.67
2022-11-30T01:18:23.086Z,85.60
2022-11-30T01:21:25.937Z,95.87
2022-11-30T01:24:27.575Z,100.23
2022-11-30T01:27:29.303Z,103.00
2022-11-30T01:30:30.919Z,102.07
2022-11-30T01:33:32.674Z,96.00
2022-11-30T01:36:34.309Z,84.93
2022-11-30T01:39:35.952Z,67.03
2022-11-30T01:42:38.138Z,65.30
2022-11-30T01:45:39.787Z,59.33
2022-11-30T01:48:41.333Z,61.30
2022-11-30T01:51:44.752Z,65.43
2022-11-30T01:54:50.163Z,58.53
2022-11-30T01:57:54.624Z,55.93
2022-11-30T02:00:56.426Z,61.10
2022-11-30T02:04:02.102Z,59.87
2022-11-30T02:07:05.825Z,60.47
2022-11-30T02:10:07.632Z,58.13
2022-11-30T02:13:12.060Z,61.97
2022-11-30T02:16:19.584Z,60.43
2022-11-30T02:19:40.196Z,65.40
2022-11-30T02:23:01.198Z,69.63
2022-11-30T02:26:18.068Z,71.13
2022-11-30T02:29:21.416Z,68.07
2022-11-30T02:32:25.928Z,66.63
2022-11-30T02:35:29.613Z,68.63
2022-11-30T02:38:31.278Z,70.97
2022-11-30T02:41:39.839Z,66.53
2022-11-30T02:44:43.094Z,68.03
2022-11-30T02:47:50.952Z,65.93
2022-11-30T02:50:55.114Z,72.63
2022-11-30T02:53:56.784Z,66.83
2022-11-30T02:56:58.329Z,69.17
2022-11-30T03:00:00.684Z,65.13
2022-11-30T03:03:02.348Z,67.37
2022-11-30T03:06:04.115Z,64.80
2022-11-30T03:09:05.708Z,68.53
2022-11-30T03:12:07.437Z,65.97
2022-11-30T03:15:09.277Z,69.87
2022-11-30T03:18:10.862Z,64.33
2022-11-30T03:21:12.770Z,62.87
2022-11-30T03:24:14.374Z,62.63
2022-11-30T03:27:15.957Z,60.53
2022-11-30T03:30:17.556Z,57.97
2022-11-30T03:33:19.114Z,63.77
2022-11-30T03:36:20.708Z,55.07
2022-11-30T03:39:22.431Z,56.87
2022-11-30T03:42:24.032Z,59.50
2022-11-30T03:45:25.603Z,54.17
2022-11-30T03:48:27.206Z,57.37
2022-11-30T03:51:28.794Z,53.07
2022-11-30T03:54:30.403Z,53.03
2022-11-30T03:57:32.019Z,52.57
2022-11-30T04:00:33.620Z,47.60
2022-11-30T04:03:35.395Z,55.40
2022-11-30T04:06:37.028Z,52.23
2022-11-30T04:09:39.264Z,53.90
2022-11-30T04:12:40.943Z,54.53
2022-11-30T04:15:45.580Z,56.87
2022-11-30T04:18:47.531Z,53.17
2022-11-30T04:21:51.594Z,59.57
2022-11-30T04:24:53.361Z,57.77
2022-11-30T04:27:58.249Z,56.73
2022-11-30T04:31:03.010Z,49.63
2022-11-30T04:34:04.885Z,55.10
2022-11-30T04:37:06.610Z,52.57
2022-11-30T04:40:08.642Z,45.30
2022-11-30T04:43:11.374Z,43.77
2022-11-30T04:46:13.381Z,42.10
2022-11-30T04:49:15.031Z,43.63
2022-11-30T04:52:16.686Z,37.43
2022-11-30T04:55:19.485Z,32.07
2022-11-30T04:58:21.213Z,30.50
2022-11-30T05:01:22.886Z,26.57
2022-11-30T05:04:24.598Z,27.70
2022-11-30T05:07:26.253Z,27.53
2022-11-30T05:10:28.675Z,28.20
2022-11-30T05:13:30.200Z,26.90
2022-11-30T05:16:31.866Z,29.47
2022-11-30T05:19:33.610Z,40.53
2022-11-30T05:22:35.346Z,33.10
2022-11-30T05:25:36.972Z,32.33
2022-11-30T05:28:38.525Z,28.30
2022-11-30T05:31:41.050Z,35.97
2022-11-30T05:34:50.597Z,32.00
2022-11-30T05:37:53.111Z,34.83
2022-11-30T05:41:01.585Z,33.83
2022-11-30T05:44:03.210Z,28.73
2022-11-30T05:47:04.947Z,27.20
2022-11-30T05:50:07.066Z,21.77
2022-11-30T05:53:08.781Z,20.67
2022-11-30T05:56:14.566Z,63.33
2022-11-30T05:59:16.174Z,27.90
2022-11-30T06:02:18.051Z,26.80
2022-11-30T06:05:19.665Z,27.73
2022-11-30T06:08:21.762Z,23.87
2022-11-30T06:11:23.340Z,25.10
2022-11-30T06:14:24.914Z,25.40
2022-11-30T06:17:26.533Z,29.97
2022-11-30T06:20:28.104Z,33.30
2022-11-30T06:23:30.011Z,34.37
2022-11-30T06:26:31.638Z,34.80
2022-11-30T06:29:33.271Z,29.63
2022-11-30T06:32:34.884Z,34.27
2022-11-30T06:35:36.535Z,42.50
2022-11-30T06:38:38.128Z,37.43
2022-11-30T06:41:40.136Z,32.93
2022-11-30T06:44:41.660Z,38.43
2022-11-30T06:47:44.464Z,36.30
2022-11-30T06:50:50.096Z,35.47
2022-11-30T06:53:51.901Z,31.13
2022-11-30T06:56:53.511Z,37.17
2022-11-30T06:59:55.372Z,43.53
2022-11-30T07:02:57.036Z,25.83
2022-11-30T07:05:58.652Z,26.17
2022-11-30T07:09:00.237Z,24.17
2022-11-30T07:12:02.227Z,19.93
2022-11-30T07:15:04.240Z,20.63
2022-11-30T07:18:06.052Z,33.53
2022-11-30T07:21:07.691Z,27.93
2022-11-30T07:24:29.931Z,26.70
2022-11-30T07:27:31.517Z,28.40
2022-11-30T07:30:33.092Z,28.03
2022-11-30T07:33:34.701Z,29.30
2022-11-30T07:36:36.773Z,30.20
2022-11-30T07:39:38.385Z,35.10
2022-11-30T07:42:39.936Z,35.43
2022-11-30T07:45:41.528Z,36.67
2022-11-30T07:48:43.807Z,39.00
2022-11-30T07:51:45.712Z,41.33
2022-11-30T07:54:47.483Z,54.67
2022-11-30T07:57:49.358Z,46.63
2022-11-30T08:00:51.193Z,74.27
2022-11-30T08:03:53.640Z,51.63
2022-11-30T08:06:55.484Z,45.60
2022-11-30T08:09:57.098Z,49.87
2022-11-30T08:12:59.276Z,48.00
2022-11-30T08:16:05.334Z,229.77
2022-11-30T08:19:06.972Z,111.63
2022-11-30T08:22:08.599Z,65.83
2022-11-30T08:25:10.162Z,75.83
2022-11-30T08:28:11.835Z,76.00
2022-11-30T08:31:15.581Z,105.57
2022-11-30T08:34:17.460Z,79.70
2022-11-30T08:37:19.101Z,73.70
2022-11-30T08:40:20.692Z,69.20
2022-11-30T08:43:22.328Z,73.17
2022-11-30T08:49:46.048Z,76.20
2022-11-30T08:52:47.672Z,75.60
2022-11-30T08:55:59.257Z,74.07
2022-11-30T08:59:01.070Z,76.53
2022-11-30T09:02:02.958Z,80.07
2022-11-30T09:05:04.803Z,72.40
2022-11-30T09:08:06.438Z,74.13
2022-11-30T09:11:28.312Z,73.67
2022-11-30T09:14:29.966Z,75.07
2022-11-30T09:17:31.650Z,72.80
2022-11-30T09:20:34.012Z,65.73
2022-11-30T09:23:35.972Z,77.90
2022-11-30T09:26:37.643Z,89.47
2022-11-30T09:29:39.254Z,84.87
2022-11-30T09:32:40.932Z,86.17
2022-11-30T09:35:42.593Z,83.87
2022-11-30T09:38:44.697Z,90.80
2022-11-30T09:41:49.318Z,92.83
2022-11-30T09:44:51.173Z,132.40
2022-11-30T09:47:55.897Z,109.87
2022-11-30T09:51:00.324Z,111.43
2022-11-30T09:54:08.723Z,90.73
2022-11-30T09:57:22.654Z,90.40
2022-11-30T10:00:25.233Z,112.40
2022-11-30T10:03:26.938Z,106.23
2022-11-30T10:06:42.421Z,98.63
2022-11-30T10:10:30.365Z,98.57
2022-11-30T10:13:50.702Z,108.33
2022-11-30T10:16:55.411Z,102.87
2022-11-30T10:19:57.078Z,107.53
2022-11-30T10:23:07.129Z,102.13
2022-11-30T10:26:10.556Z,125.20
2022-11-30T10:29:19.291Z,138.07
2022-11-30T10:32:22.459Z,132.63
2022-11-30T10:35:39.484Z,134.03
2022-11-30T10:38:43.293Z,141.07
2022-11-30T10:41:48.457Z,144.97
2022-11-30T10:44:58.151Z,171.00
2022-11-30T10:48:18.590Z,157.10
2022-11-30T10:51:20.493Z,169.47
2022-11-30T10:54:22.573Z,142.83
2022-11-30T10:57:26.242Z,126.37
2022-11-30T11:00:27.776Z,128.70
2022-11-30T11:03:29.341Z,142.23
2022-11-30T11:06:30.971Z,130.27
2022-11-30T11:09:39.550Z,131.10
2022-11-30T11:12:46.521Z,128.97
2022-11-30T11:15:58.645Z,136.70
2022-11-30T11:19:00.262Z,123.10
2022-11-30T11:22:03.801Z,161.43
2022-11-30T11:25:23.581Z,133.17
2022-11-30T11:28:25.593Z,141.63
2022-11-30T11:31:42.839Z,157.23
2022-11-30T11:34:49.539Z,160.07
2022-11-30T11:37:52.851Z,155.77
2022-11-30T11:41:06.146Z,142.77
2022-11-30T11:44:07.729Z,130.87
2022-11-30T11:47:22.714Z,97.13
2022-11-30T11:50:57.852Z,121.93
2022-11-30T11:53:53.647Z,93.93
2022-11-30T11:56:56.661Z,80.00
2022-11-30T12:00:05.523Z,71.27
2022-11-30T12:03:19.320Z,66.07
2022-11-30T12:06:21.140Z,78.57
2022-11-30T12:09:25.440Z,75.50
2022-11-30T12:12:27.630Z,71.73
2022-11-30T12:15:52.796Z,68.73
2022-11-30T12:19:12.876Z,66.73
2022-11-30T12:22:37.590Z,69.23
2022-11-30T12:25:39.184Z,68.40
2022-11-30T12:28:45.447Z,67.53
2022-11-30T12:32:13.167Z,67.13
2022-11-30T12:35:27.343Z,60.20
2022-11-30T12:38:34.827Z,64.10
2022-11-30T12:41:47.836Z,59.30
2022-11-30T12:44:49.398Z,59.63
2022-11-30T12:48:02.326Z,52.10
2022-11-30T12:51:03.925Z,52.80
2022-11-30T12:54:24.321Z,71.93
2022-11-30T12:57:31.538Z,64.40
2022-11-30T13:00:44.569Z,54.03
2022-11-30T13:03:46.229Z,52.07
2022-11-30T13:06:56.100Z,51.33
2022-11-30T13:10:08.780Z,55.53
2022-11-30T13:13:18.969Z,55.97
2022-11-30T13:16:22.691Z,67.90
2022-11-30T13:19:33.387Z,66.07
2022-11-30T13:22:37.820Z,72.20
2022-11-30T13:26:07.366Z,69.93
2022-11-30T13:29:13.224Z,66.83
2022-11-30T13:32:48.566Z,68.57
2022-11-30T13:35:37.830Z,65.23
2022-11-30T13:38:39.424Z,67.20
2022-11-30T13:41:45.563Z,63.87
2022-11-30T13:44:47.550Z,66.53
2022-11-30T13:47:50.873Z,82.20
2022-11-30T13:50:52.538Z,73.97
2022-11-30T13:54:27.251Z,76.87
2022-11-30T13:57:29.851Z,91.33
2022-11-30T14:00:31.598Z,127.97
2022-11-30T14:03:33.347Z,99.40
2022-11-30T14:06:48.189Z,93.83
2022-11-30T14:09:56.797Z,130.40
2022-11-30T14:12:59.762Z,122.37
2022-11-30T14:16:02.305Z,130.93
2022-11-30T14:19:05.595Z,129.63
2022-11-30T14:22:10.840Z,125.80
2022-11-30T14:25:16.788Z,131.93
2022-11-30T14:28:19.778Z,126.57
2022-11-30T14:31:24.358Z,136.33
2022-11-30T14:34:28.926Z,134.23
2022-11-30T14:37:33.878Z,137.40
2022-11-30T14:40:35.486Z,138.37
2022-11-30T14:43:37.150Z,135.67
2022-11-30T14:46:38.822Z,128.00
2022-11-30T14:49:48.310Z,138.73
2022-11-30T14:53:08.941Z,162.97
2022-11-30T14:56:16.534Z,132.43
2022-11-30T14:59:30.084Z,131.37
2022-11-30T15:02:38.676Z,142.33
2022-11-30T15:05:42.207Z,143.50
2022-11-30T15:08:52.939Z,117.53
2022-11-30T15:11:55.159Z,174.63
2022-11-30T15:15:07.919Z,121.97
2022-11-30T15:18:17.116Z,113.67
2022-11-30T15:21:20.219Z,122.33
2022-11-30T15:24:22.120Z,139.53
2022-11-30T15:27:23.987Z,130.77
2022-11-30T15:30:25.795Z,153.93
2022-11-30T15:33:33.055Z,176.13
2022-11-30T15:36:35.603Z,245.03
2022-11-30T15:39:37.424Z,239.07
2022-11-30T15:42:40.485Z,208.23
2022-11-30T15:45:51.154Z,213.07
2022-11-30T15:49:03.880Z,190.80
2022-11-30T15:52:09.184Z,190.87
2022-11-30T15:55:30.793Z,166.50
2022-11-30T15:58:32.366Z,161.23
2022-11-30T16:02:02.151Z,160.67
2022-11-30T16:05:03.941Z,180.80
2022-11-30T16:08:13.785Z,167.43
2022-11-30T16:11:15.813Z,187.83
2022-11-30T16:14:17.799Z,209.03
2022-11-30T16:17:19.472Z,204.57
2022-11-30T16:20:21.225Z,197.27
2022-11-30T16:23:22.936Z,201.20
2022-11-30T16:29:51.820Z,200.10
2022-11-30T16:32:53.839Z,202.90
2022-11-30T16:35:55.475Z,203.13
2022-11-30T16:38:57.849Z,191.17
2022-11-30T16:41:59.567Z,196.03
2022-11-30T16:45:01.401Z,165.97
2022-11-30T16:48:03.460Z,170.90
2022-11-30T16:51:05.191Z,177.47
2022-11-30T16:54:06.903Z,179.23
2022-11-30T16:57:08.602Z,189.07
2022-11-30T17:00:11.584Z,177.47
2022-11-30T17:03:25.576Z,184.77
2022-11-30T17:06:30.825Z,199.80
2022-11-30T17:09:34.584Z,182.57
2022-11-30T17:12:36.358Z,183.63
2022-11-30T17:15:37.945Z,169.53
2022-11-30T17:18:39.551Z,158.73
2022-11-30T17:21:43.009Z,166.50
2022-11-30T17:24:44.636Z,165.70
2022-11-30T17:27:46.862Z,175.97
2022-11-30T17:30:48.766Z,160.43
2022-11-30T17:33:51.668Z,143.33
2022-11-30T17:36:56.296Z,141.33
2022-11-30T17:39:58.775Z,153.13
2022-11-30T17:43:00.520Z,158.27
2022-11-30T17:46:12.555Z,167.17
2022-11-30T17:49:14.276Z,180.80
2022-11-30T17:52:15.855Z,153.53
2022-11-30T17:55:17.491Z,154.63
2022-11-30T17:58:19.210Z,157.67
2022-11-30T18:01:25.422Z,163.20
2022-11-30T18:04:27.190Z,146.20
2022-11-30T18:07:28.934Z,157.27
2022-11-30T18:10:30.588Z,158.77
2022-11-30T18:13:32.266Z,151.73
2022-11-30T18:16:38.714Z,138.53
2022-11-30T18:19:40.589Z,158.47
2022-11-30T18:22:42.407Z,161.83
2022-11-30T18:25:44.232Z,165.67
2022-11-30T18:28:46.034Z,180.37
2022-11-30T18:31:51.412Z,235.30
2022-11-30T18:34:53.019Z,223.33
2022-11-30T18:37:57.416Z,233.67
2022-11-30T18:40:59.239Z,240.47
2022-11-30T18:44:00.885Z,229.80
2022-11-30T18:47:02.454Z,206.40
2022-11-30T18:50:04.327Z,207.33
2022-11-30T18:53:06.025Z,205.07
2022-11-30T18:56:13.163Z,198.63
2022-11-30T18:59:15.013Z,240.73
2022-11-30T19:02:19.115Z,198.57
2022-11-30T19:05:34.915Z,203.63
2022-11-30T19:08:37.177Z,204.63
2022-11-30T19:11:39.739Z,216.77
2022-11-30T19:14:43.066Z,232.87
2022-11-30T19:17:47.781Z,195.53
2022-11-30T19:20:50.430Z,203.50
2022-11-30T19:23:52.032Z,188.10
2022-11-30T19:26:53.731Z,173.20
2022-11-30T19:29:55.322Z,155.17
2022-11-30T19:32:56.938Z,184.57
2022-11-30T19:36:01.914Z,152.97
2022-11-30T19:39:03.628Z,166.53
2022-11-30T19:42:07.159Z,166.03
2022-11-30T19:45:08.955Z,162.00
2022-11-30T19:48:10.606Z,165.30
2022-11-30T19:51:16.445Z,186.70
2022-11-30T19:54:19.553Z,158.57
2022-11-30T19:57:21.153Z,172.00
2022-11-30T20:00:22.757Z,162.10
2022-11-30T20:03:24.423Z,153.53
2022-11-30T20:06:30.326Z,149.50
2022-11-30T20:09:33.084Z,161.50
2022-11-30T20:12:34.715Z,171.90
2022-11-30T20:15:47.335Z,147.53
2022-11-30T20:19:00.287Z,162.57
2022-11-30T20:22:04.824Z,185.30
2022-11-30T20:25:06.951Z,174.43
2022-11-30T20:28:12.547Z,175.10
2022-11-30T20:31:16.087Z,164.40
2022-11-30T20:34:17.948Z,155.03
2022-11-30T20:37:24.458Z,114.50
2022-11-30T20:40:26.199Z,121.03
2022-11-30T20:43:28.001Z,109.67
2022-11-30T20:46:35.852Z,123.20
2022-11-30T20:49:37.851Z,132.03
2022-11-30T20:52:39.873Z,110.70
2022-11-30T20:55:42.110Z,109.17
2022-11-30T20:58:47.714Z,103.87
2022-11-30T21:01:53.448Z,95.87
2022-11-30T21:04:56.236Z,95.17
2022-11-30T21:08:07.783Z,96.27
2022-11-30T21:11:14.053Z,93.20
2022-11-30T21:14:17.871Z,84.77
2022-11-30T21:17:19.612Z,90.00
2022-11-30T21:20:21.311Z,101.47
2022-11-30T21:23:27.741Z,98.20
2022-11-30T21:26:30.574Z,109.00
2022-11-30T21:29:32.129Z,95.43
2022-11-30T21:32:33.861Z,96.67
2022-11-30T21:35:37.538Z,94.27
2022-11-30T21:38:39.144Z,88.47
2022-11-30T21:41:40.951Z,77.73
2022-11-30T21:44:42.518Z,92.57
2022-11-30T21:47:44.151Z,96.83
2022-11-30T21:50:45.770Z,81.97
2022-11-30T21:53:49.475Z,80.70
2022-11-30T21:56:52.643Z,74.27
2022-11-30T21:59:54.204Z,63.80
2022-11-30T22:02:55.803Z,64.87
2022-11-30T22:06:01.175Z,70.07
2022-11-30T22:09:07.671Z,55.83
2022-11-30T22:12:09.321Z,44.90
2022-11-30T22:15:11.085Z,40.40
2022-11-30T22:18:12.700Z,41.07
2022-11-30T22:21:15.457Z,51.93
2022-11-30T22:24:17.897Z,45.17
2022-11-30T22:27:19.545Z,36.53
2022-11-30T22:30:21.310Z,39.37
2022-11-30T22:33:22.897Z,35.17
2022-11-30T22:36:26.006Z,37.10
2022-11-30T22:39:27.713Z,43.03
2022-11-30T22:42:29.334Z,34.57
2022-11-30T22:45:32.926Z,36.27
2022-11-30T22:48:34.838Z,34.20
2022-11-30T22:51:37.666Z,33.30
2022-11-30T22:54:39.350Z,34.70
2022-11-30T22:57:41.042Z,27.73
2022-11-30T23:00:42.651Z,25.93
2022-11-30T23:03:45.267Z,21.23
2022-11-30T23:06:47.614Z,25.80
2022-11-30T23:09:49.411Z,22.10
2022-11-30T23:12:59.590Z,27.27
2022-11-30T23:16:01.986Z,35.87
2022-11-30T23:19:04.119Z,34.43
2022-11-30T23:22:05.791Z,33.43
2022-11-30T23:25:07.545Z,32.93
2022-11-30T23:28:09.134Z,32.80
2022-11-30T23:31:34.050Z,27.03
2022-11-30T23:34:37.288Z,27.50
2022-11-30T23:37:38.897Z,27.33
2022-11-30T23:40:40.548Z,23.63
2022-11-30T23:43:42.694Z,23.57
2022-11-30T23:46:44.461Z,21.23
2022-11-30T23:49:46.205Z,20.80
2022-11-30T23:52:47.879Z,20.27
2022-11-30T23:55:50.036Z,23.30
2022-11-30T23:58:51.741Z,21.10
